Time;durP1;ratioP1;P1;durP2;ratioP2;P2;SDS_P1;SDS_P2;PMS_P1;PMS_P2;Temp;Humidity;BMP_temperature;BMP_pressure;BME280_temperature;BME280_humidity;BME280_pressure;Samples;Min_cycle;Max_cycle;Signal;HPM_P1;HPM_P2
2022/12/23 00:01:06;;;;;;;3.70;0.97;;;7.60;99.90;;;;;;5048007;28;20219;-58
2022/12/23 00:03:32;;;;;;;2.67;1.03;;;7.60;99.90;;;;;;5049659;28;20258;-58
2022/12/23 00:05:59;;;;;;;0.80;0.80;;;7.60;99.90;;;;;;5047190;28;20480;-58
2022/12/23 00:08:25;;;;;;;1.13;0.90;;;7.60;99.90;;;;;;5033547;28;20567;-59
2022/12/23 00:10:52;;;;;;;1.10;1.10;;;7.60;99.90;;;;;;5051291;28;20441;-58
2022/12/23 00:16:08;;;;;;;0.93;0.90;;;7.70;99.90;;;;;;5044032;28;20460;-58
2022/12/23 00:18:35;;;;;;;1.77;1.10;;;7.70;99.90;;;;;;5032853;28;20453;-59
2022/12/23 00:21:06;;;;;;;0.80;0.80;;;7.70;99.90;;;;;;5047778;28;20524;-59
2022/12/23 00:23:34;;;;;;;0.87;0.80;;;7.70;99.90;;;;;;5049565;28;20409;-59
2022/12/23 00:26:00;;;;;;;0.93;0.90;;;7.70;99.90;;;;;;5052134;28;20461;-58
2022/12/23 00:28:27;;;;;;;0.80;0.80;;;7.70;99.90;;;;;;5043757;28;20493;-58
2022/12/23 00:31:05;;;;;;;1.03;0.87;;;7.80;99.90;;;;;;5046331;28;20500;-58
2022/12/23 00:33:33;;;;;;;0.80;0.80;;;7.80;99.90;;;;;;5045474;28;21000;-58
2022/12/23 00:35:59;;;;;;;0.90;0.90;;;7.80;99.90;;;;;;5047842;28;20517;-58
2022/12/23 00:43:59;;;;;;;0.83;0.83;;;7.80;99.90;;;;;;5037720;28;20410;-58
2022/12/23 00:46:25;;;;;;;0.80;0.80;;;7.80;99.90;;;;;;5043010;28;20860;-58
2022/12/23 00:51:35;;;;;;;0.93;0.93;;;7.90;99.90;;;;;;5033609;28;20571;-58
2022/12/23 00:54:01;;;;;;;1.00;0.90;;;7.90;99.90;;;;;;5047638;28;20422;-58
2022/12/23 00:56:26;;;;;;;4.60;0.90;;;7.90;99.90;;;;;;5047444;28;20186;-58
2022/12/23 00:58:52;;;;;;;1.10;1.10;;;7.90;99.90;;;;;;5047676;28;20417;-58
2022/12/23 01:06:47;;;;;;;1.03;0.80;;;8.00;99.90;;;;;;5039284;28;20505;-58
2022/12/23 01:09:13;;;;;;;3.70;0.90;;;8.00;99.90;;;;;;5057530;28;20464;-57
2022/12/23 01:11:38;;;;;;;3.23;1.00;;;8.00;99.90;;;;;;5043420;28;20211;-58
2022/12/23 01:14:04;;;;;;;1.90;1.00;;;8.00;99.90;;;;;;5029002;28;20442;-58
2022/12/23 01:16:30;;;;;;;0.80;0.80;;;8.00;99.90;;;;;;5041568;28;20262;-58
2022/12/23 01:18:56;;;;;;;1.00;1.00;;;8.00;99.90;;;;;;5038655;28;20521;-59
2022/12/23 01:21:22;;;;;;;0.87;0.87;;;8.10;99.90;;;;;;5044276;28;20207;-59
2022/12/23 01:23:47;;;;;;;0.83;0.83;;;8.10;99.90;;;;;;5057403;28;20261;-58
2022/12/23 01:26:13;;;;;;;0.90;0.90;;;8.10;99.90;;;;;;5055277;28;20528;-59
2022/12/23 01:28:39;;;;;;;0.80;0.80;;;8.10;99.90;;;;;;5051106;28;20206;-59
2022/12/23 01:31:08;;;;;;;0.70;0.70;;;8.10;99.90;;;;;;5042364;28;20281;-58
2022/12/23 01:33:33;;;;;;;0.87;0.87;;;8.20;99.90;;;;;;5037876;28;20187;-59
2022/12/23 01:36:01;;;;;;;1.53;0.83;;;8.20;99.90;;;;;;5030543;28;20425;-58
2022/12/23 01:38:27;;;;;;;1.97;0.90;;;8.20;99.90;;;;;;5052896;28;20211;-59
2022/12/23 01:40:53;;;;;;;1.00;0.90;;;8.20;99.90;;;;;;5040841;28;20466;-58
2022/12/23 01:43:19;;;;;;;0.80;0.80;;;8.20;99.90;;;;;;5048773;28;20429;-58
2022/12/23 01:45:45;;;;;;;0.80;0.80;;;8.20;99.90;;;;;;5042358;28;20436;-58
2022/12/23 01:48:20;;;;;;;1.20;1.10;;;8.20;99.90;;;;;;5042879;28;20195;-59
2022/12/23 01:50:54;;;;;;;1.20;1.10;;;8.20;99.90;;;;;;5032680;28;20449;-57
2022/12/23 01:53:26;;;;;;;1.10;1.10;;;8.30;99.90;;;;;;5053645;28;20532;-59
2022/12/23 01:55:58;;;;;;;1.10;1.10;;;8.30;99.90;;;;;;5046897;28;20468;-59
2022/12/23 01:58:37;;;;;;;1.10;1.10;;;8.30;99.90;;;;;;5039475;28;20429;-58
2022/12/23 02:03:49;;;;;;;0.97;0.80;;;8.30;99.90;;;;;;5046943;28;20478;-59
2022/12/23 02:09:18;;;;;;;3.20;0.87;;;8.30;99.90;;;;;;5035133;28;20538;-59
2022/12/23 02:11:46;;;;;;;2.03;1.10;;;8.30;99.90;;;;;;5043156;28;20442;-59
2022/12/23 02:18:05;;;;;;;0.90;0.90;;;8.30;99.90;;;;;;5045174;28;20441;-58
2022/12/23 02:20:55;;;;;;;0.70;0.70;;;8.30;99.90;;;;;;5039989;28;20485;-59
2022/12/23 02:23:46;;;;;;;0.80;0.80;;;8.30;99.90;;;;;;5050466;28;20785;-59
2022/12/23 02:26:49;;;;;;;1.03;0.83;;;8.30;99.90;;;;;;5049364;28;20521;-59
2022/12/23 02:29:52;;;;;;;0.70;0.70;;;8.30;99.90;;;;;;5053938;28;20457;-60
2022/12/23 02:32:44;;;;;;;0.70;0.70;;;8.30;99.90;;;;;;5040917;28;20518;-57
2022/12/23 02:35:31;;;;;;;1.27;0.97;;;8.30;99.90;;;;;;5046476;28;20452;-60
2022/12/23 02:38:10;;;;;;;0.70;0.70;;;8.30;99.90;;;;;;5045478;28;20436;-59
2022/12/23 02:41:15;;;;;;;0.90;0.90;;;8.30;99.90;;;;;;5034256;28;20846;-60
2022/12/23 02:44:01;;;;;;;1.10;0.90;;;8.30;99.90;;;;;;5038128;28;20818;-59
2022/12/23 02:46:37;;;;;;;2.30;0.80;;;8.30;99.90;;;;;;5035708;28;20905;-60
2022/12/23 02:49:11;;;;;;;0.90;0.90;;;8.30;99.90;;;;;;5030458;28;20454;-57
2022/12/23 02:51:43;;;;;;;1.70;0.90;;;8.30;99.90;;;;;;5052335;28;20969;-59
2022/12/23 02:54:12;;;;;;;1.03;1.03;;;8.30;99.90;;;;;;5037884;28;20407;-59
2022/12/23 02:56:41;;;;;;;1.47;1.10;;;8.20;99.90;;;;;;5046807;28;20456;-59
2022/12/23 02:59:14;;;;;;;1.40;1.30;;;8.20;99.90;;;;;;5043723;28;20454;-59
2022/12/23 03:01:41;;;;;;;1.00;1.00;;;8.20;99.90;;;;;;5043915;28;20445;-59
2022/12/23 03:04:07;;;;;;;1.00;1.00;;;8.20;99.90;;;;;;5043267;28;20440;-59
2022/12/23 03:06:41;;;;;;;5.60;4.00;;;8.20;99.90;;;;;;5053187;28;20420;-59
2022/12/23 03:09:07;;;;;;;2.77;2.37;;;8.30;99.90;;;;;;5035655;28;20472;-59
2022/12/23 03:11:58;;;;;;;2.50;2.30;;;8.20;99.90;;;;;;5043149;28;20429;-58
2022/12/23 03:14:49;;;;;;;4.03;2.90;;;8.20;99.90;;;;;;5048415;28;20414;-59
2022/12/23 03:17:32;;;;;;;1.60;1.50;;;8.20;99.90;;;;;;5044894;28;20430;-59
2022/12/23 03:20:00;;;;;;;1.30;1.20;;;8.20;99.90;;;;;;5059495;28;20433;-58
2022/12/23 03:22:36;;;;;;;1.57;1.43;;;8.20;99.90;;;;;;5050352;28;21080;-58
2022/12/23 03:25:12;;;;;;;1.40;1.30;;;8.20;99.90;;;;;;5049276;28;20595;-58
2022/12/23 03:27:39;;;;;;;1.33;1.23;;;8.30;99.90;;;;;;5041579;28;20500;-58
2022/12/23 03:30:09;;;;;;;1.40;1.30;;;8.30;99.90;;;;;;5032638;28;20978;-58
2022/12/23 03:32:55;;;;;;;1.40;1.30;;;8.30;99.90;;;;;;5064243;28;20428;-59
2022/12/23 03:35:27;;;;;;;1.17;1.17;;;8.30;99.90;;;;;;5047254;28;20421;-58
2022/12/23 03:37:56;;;;;;;1.53;1.20;;;8.30;99.90;;;;;;5047571;28;20993;-59
2022/12/23 03:40:30;;;;;;;1.50;1.40;;;8.30;99.90;;;;;;5035382;28;20460;-59
2022/12/23 03:43:03;;;;;;;1.37;1.20;;;8.30;99.90;;;;;;5043904;28;20488;-59
2022/12/23 03:45:37;;;;;;;1.00;1.00;;;8.30;99.90;;;;;;5043335;28;21048;-59
2022/12/23 03:48:34;;;;;;;1.30;1.20;;;8.30;99.90;;;;;;5030472;28;20457;-59
2022/12/23 03:51:20;;;;;;;1.17;1.10;;;8.30;99.90;;;;;;5067604;28;20549;-59
2022/12/23 03:53:55;;;;;;;1.30;1.20;;;8.40;99.90;;;;;;5047208;28;20457;-59
2022/12/23 03:56:29;;;;;;;1.43;1.33;;;8.40;99.90;;;;;;5052165;28;20792;-59
2022/12/23 03:59:02;;;;;;;1.27;1.17;;;8.40;99.90;;;;;;5064582;28;20421;-59
2022/12/23 04:01:52;;;;;;;1.73;1.60;;;8.40;99.90;;;;;;5043604;28;20453;-59
2022/12/23 04:04:25;;;;;;;2.10;1.40;;;8.40;99.90;;;;;;5051693;28;20433;-57
2022/12/23 04:06:59;;;;;;;1.70;1.33;;;8.40;99.90;;;;;;5068837;28;20393;-58
2022/12/23 04:09:27;;;;;;;1.80;1.70;;;8.40;99.90;;;;;;5041732;28;20560;-59
2022/12/23 04:11:53;;;;;;;1.97;1.83;;;8.40;99.90;;;;;;5048266;28;20453;-59
2022/12/23 04:14:21;;;;;;;1.57;1.47;;;8.40;99.90;;;;;;5057154;28;20434;-58
2022/12/23 04:16:48;;;;;;;1.83;1.53;;;8.50;99.90;;;;;;5037687;28;20425;-58
2022/12/23 04:19:14;;;;;;;1.70;1.43;;;8.50;99.90;;;;;;5050960;28;20443;-60
2022/12/23 04:21:40;;;;;;;1.77;1.30;;;8.50;99.90;;;;;;5057193;28;20453;-59
2022/12/23 04:24:05;;;;;;;2.87;2.20;;;8.50;99.90;;;;;;5032009;28;20442;-60
2022/12/23 04:26:31;;;;;;;1.70;1.60;;;8.50;99.90;;;;;;5029740;28;20220;-60
2022/12/23 04:28:57;;;;;;;5.40;3.50;;;8.50;99.90;;;;;;5042229;28;20206;-58
2022/12/23 04:31:22;;;;;;;3.43;1.50;;;8.50;99.90;;;;;;5050679;28;20198;-59
2022/12/23 04:33:48;;;;;;;1.77;1.67;;;8.50;99.90;;;;;;5059802;28;20274;-59
2022/12/23 04:36:13;;;;;;;1.60;1.50;;;8.50;99.90;;;;;;5047109;28;20183;-59
2022/12/23 04:38:39;;;;;;;1.90;1.70;;;8.50;99.90;;;;;;5039725;28;20663;-59
2022/12/23 04:41:04;;;;;;;2.00;1.90;;;8.50;99.90;;;;;;5044731;28;20218;-59
2022/12/23 04:43:30;;;;;;;2.40;2.17;;;8.50;99.90;;;;;;5040899;28;20186;-59
2022/12/23 04:45:56;;;;;;;2.40;2.20;;;8.50;99.90;;;;;;5044698;28;20179;-59
2022/12/23 04:48:21;;;;;;;3.03;2.73;;;8.50;99.90;;;;;;5049032;28;20210;-59
2022/12/23 04:50:47;;;;;;;3.00;2.50;;;8.50;99.90;;;;;;5050982;28;20202;-59
2022/12/23 04:53:12;;;;;;;2.73;2.50;;;8.50;99.90;;;;;;5047754;28;20227;-59
2022/12/23 04:55:38;;;;;;;2.30;2.10;;;8.50;99.90;;;;;;5036573;28;20670;-59
2022/12/23 04:58:04;;;;;;;2.83;2.63;;;8.50;99.90;;;;;;5047075;28;20186;-59
2022/12/23 05:00:29;;;;;;;2.87;2.67;;;8.50;99.90;;;;;;5045189;28;20283;-58
2022/12/23 05:02:55;;;;;;;2.60;2.00;;;8.50;99.90;;;;;;5049030;28;20264;-59
2022/12/23 05:05:20;;;;;;;2.30;2.10;;;8.50;99.90;;;;;;5053362;28;20179;-59
2022/12/23 05:07:48;;;;;;;3.90;2.87;;;8.50;99.90;;;;;;5051270;28;20199;-59
2022/12/23 05:10:14;;;;;;;2.70;2.50;;;8.50;99.90;;;;;;5045616;28;20651;-58
2022/12/23 05:12:40;;;;;;;2.30;2.10;;;8.50;99.90;;;;;;5037548;28;20425;-58
2022/12/23 05:15:06;;;;;;;2.70;2.50;;;8.50;99.90;;;;;;5030245;28;20191;-58
2022/12/23 05:17:32;;;;;;;2.10;2.00;;;8.40;99.90;;;;;;5031735;28;20562;-59
2022/12/23 05:19:57;;;;;;;3.13;2.73;;;8.40;99.90;;;;;;5039760;28;20427;-55
2022/12/23 05:22:23;;;;;;;2.63;2.43;;;8.40;99.90;;;;;;5039097;28;20213;-60
2022/12/23 05:24:49;;;;;;;2.03;1.70;;;8.30;99.90;;;;;;5041731;28;20183;-60
2022/12/23 05:27:14;;;;;;;3.27;2.03;;;8.30;99.90;;;;;;5044563;28;20179;-60
2022/12/23 05:29:40;;;;;;;1.70;1.60;;;8.40;99.90;;;;;;5040906;28;20252;-61
2022/12/23 05:32:05;;;;;;;1.70;1.40;;;8.40;99.90;;;;;;5044751;28;20264;-58
2022/12/23 05:34:31;;;;;;;3.90;2.83;;;8.50;99.90;;;;;;5046753;28;21044;-60
2022/12/23 05:36:57;;;;;;;2.83;2.30;;;8.50;99.90;;;;;;5041572;28;20262;-60
2022/12/23 05:39:22;;;;;;;1.90;1.40;;;8.50;99.90;;;;;;5045511;28;20738;-59
2022/12/23 05:41:48;;;;;;;1.50;1.40;;;8.60;99.90;;;;;;5044268;28;20679;-58
2022/12/23 05:44:13;;;;;;;1.30;1.20;;;8.60;99.90;;;;;;5036608;28;20179;-59
2022/12/23 05:46:39;;;;;;;2.93;1.40;;;8.60;99.90;;;;;;5033205;28;20691;-60
2022/12/23 05:49:05;;;;;;;1.87;1.70;;;8.60;99.90;;;;;;5036469;28;20713;-59
2022/12/23 05:51:30;;;;;;;1.80;1.70;;;8.70;99.90;;;;;;5046695;28;20195;-59
2022/12/23 05:53:56;;;;;;;1.60;1.50;;;8.70;99.90;;;;;;5051770;28;20714;-60
2022/12/23 05:56:21;;;;;;;1.67;1.47;;;8.70;99.90;;;;;;5033745;28;20174;-59
2022/12/23 05:58:47;;;;;;;2.27;1.50;;;8.70;99.90;;;;;;5049861;28;20277;-60
2022/12/23 06:01:13;;;;;;;2.30;1.40;;;8.80;99.90;;;;;;5039607;28;20290;-59
2022/12/23 06:03:39;;;;;;;1.50;1.37;;;8.80;99.90;;;;;;5040960;28;20262;-59
2022/12/23 06:06:05;;;;;;;1.47;1.37;;;8.80;99.90;;;;;;5047660;28;20175;-59
2022/12/23 06:08:30;;;;;;;1.10;1.10;;;8.80;99.90;;;;;;5048408;28;20457;-59
2022/12/23 06:10:56;;;;;;;2.63;1.67;;;8.80;99.90;;;;;;5040494;28;20260;-59
2022/12/23 06:13:21;;;;;;;1.70;1.60;;;8.80;99.90;;;;;;5042905;28;20194;-59
2022/12/23 06:15:47;;;;;;;1.97;1.40;;;8.80;99.90;;;;;;5043263;28;20654;-59
2022/12/23 06:18:13;;;;;;;1.27;1.17;;;8.80;99.90;;;;;;5044103;28;20179;-59
2022/12/23 06:20:38;;;;;;;2.83;1.60;;;8.80;99.90;;;;;;5050051;28;20226;-59
2022/12/23 06:23:04;;;;;;;1.50;1.30;;;8.80;99.90;;;;;;5043068;28;20184;-59
2022/12/23 06:25:29;;;;;;;2.23;1.73;;;8.80;99.90;;;;;;5040756;28;20187;-60
2022/12/23 06:27:55;;;;;;;2.10;1.83;;;8.90;99.90;;;;;;5043834;28;20195;-59
2022/12/23 06:30:20;;;;;;;1.80;1.60;;;8.90;99.90;;;;;;5052056;28;20218;-61
2022/12/23 06:32:46;;;;;;;2.70;1.40;;;8.90;99.90;;;;;;5063604;28;20229;-59
2022/12/23 06:35:12;;;;;;;1.70;1.50;;;9.00;99.90;;;;;;5041049;28;20182;-60
2022/12/23 06:37:37;;;;;;;2.37;1.67;;;9.00;99.90;;;;;;5038283;28;20862;-59
2022/12/23 06:40:03;;;;;;;1.23;1.13;;;9.00;99.90;;;;;;5061591;28;20194;-59
2022/12/23 06:42:29;;;;;;;1.50;1.40;;;9.00;99.90;;;;;;5059183;28;20233;-60
2022/12/23 06:44:55;;;;;;;1.60;1.50;;;9.00;99.90;;;;;;5064330;28;20520;-59
2022/12/23 06:47:20;;;;;;;3.80;2.00;;;9.00;99.90;;;;;;5056451;28;20694;-59
2022/12/23 06:49:46;;;;;;;2.20;2.00;;;9.00;99.90;;;;;;5068977;28;20174;-59
2022/12/23 06:52:11;;;;;;;3.37;2.23;;;9.00;99.90;;;;;;5043874;28;20199;-60
2022/12/23 06:54:37;;;;;;;1.90;1.73;;;9.10;99.90;;;;;;5049938;28;20224;-59
2022/12/23 06:57:02;;;;;;;3.63;2.47;;;9.10;99.90;;;;;;5056004;28;20174;-59
2022/12/23 06:59:28;;;;;;;2.93;2.10;;;9.10;99.90;;;;;;5065754;28;20179;-60
2022/12/23 07:01:54;;;;;;;3.50;2.23;;;9.10;99.90;;;;;;5048000;28;20702;-59
2022/12/23 07:04:20;;;;;;;2.70;1.90;;;9.10;99.90;;;;;;5067329;28;20186;-59
2022/12/23 07:06:45;;;;;;;5.60;2.40;;;9.00;99.90;;;;;;5056503;28;20181;-59
2022/12/23 07:09:11;;;;;;;3.67;2.23;;;9.00;99.90;;;;;;5066578;28;20199;-59
2022/12/23 07:11:36;;;;;;;2.10;1.90;;;9.00;99.90;;;;;;5054620;28;20710;-60
2022/12/23 07:14:02;;;;;;;2.30;1.90;;;9.00;99.90;;;;;;5050372;28;20214;-59
2022/12/23 07:16:28;;;;;;;2.57;1.63;;;9.00;99.90;;;;;;5053511;28;20937;-59
2022/12/23 07:18:53;;;;;;;1.90;1.80;;;9.00;99.90;;;;;;5036717;28;20274;-59
2022/12/23 07:21:19;;;;;;;2.00;1.80;;;9.00;99.90;;;;;;5046879;28;20190;-59
2022/12/23 07:23:45;;;;;;;1.60;1.50;;;8.90;99.90;;;;;;5061168;28;20202;-59
2022/12/23 07:26:11;;;;;;;2.17;1.67;;;8.90;99.90;;;;;;5043469;28;20185;-59
2022/12/23 07:28:37;;;;;;;1.77;1.40;;;8.90;99.90;;;;;;5048837;28;20449;-58
2022/12/23 07:31:05;;;;;;;2.53;1.50;;;8.90;99.90;;;;;;5059504;28;20194;-59
2022/12/23 07:33:30;;;;;;;3.73;1.87;;;8.90;99.90;;;;;;5066889;28;20424;-60
2022/12/23 07:35:59;;;;;;;1.50;1.40;;;9.00;99.90;;;;;;5038406;28;20506;-59
2022/12/23 07:38:25;;;;;;;1.67;1.57;;;9.00;99.90;;;;;;5042229;28;20176;-59
2022/12/23 07:40:50;;;;;;;1.80;1.70;;;9.00;99.90;;;;;;5050693;28;20443;-58
2022/12/23 07:43:16;;;;;;;1.87;1.70;;;9.00;99.90;;;;;;5064534;28;20179;-58
2022/12/23 07:45:42;;;;;;;5.43;1.90;;;9.00;99.90;;;;;;5045825;28;20183;-59
2022/12/23 07:48:08;;;;;;;1.80;1.70;;;9.00;99.90;;;;;;5054296;28;20278;-59
2022/12/23 07:50:34;;;;;;;3.70;2.23;;;9.10;99.90;;;;;;5045762;28;20691;-58
2022/12/23 07:52:59;;;;;;;3.10;2.03;;;9.10;99.90;;;;;;5042358;28;20398;-59
2022/12/23 07:55:25;;;;;;;2.20;2.10;;;9.10;99.90;;;;;;5049418;28;20179;-59
2022/12/23 07:57:51;;;;;;;2.13;1.80;;;9.10;99.90;;;;;;5054000;28;20178;-59
2022/12/23 08:00:18;;;;;;;2.80;2.00;;;9.10;99.90;;;;;;5051958;28;20174;-60
2022/12/23 08:02:44;;;;;;;2.70;2.20;;;9.10;99.90;;;;;;5048365;28;20429;-59
2022/12/23 08:05:10;;;;;;;2.67;1.87;;;9.10;99.90;;;;;;5045042;28;20445;-60
2022/12/23 08:07:36;;;;;;;4.37;2.37;;;9.20;99.90;;;;;;5044744;28;20460;-59
2022/12/23 08:10:03;;;;;;;3.87;2.23;;;9.20;99.90;;;;;;5059140;28;21145;-59
2022/12/23 08:12:28;;;;;;;1.87;1.77;;;9.20;99.90;;;;;;5052487;28;20297;-59
2022/12/23 08:14:54;;;;;;;5.53;2.07;;;9.20;99.90;;;;;;5047457;28;20523;-59
2022/12/23 08:17:20;;;;;;;3.97;2.03;;;9.20;99.90;;;;;;5051028;28;20186;-59
2022/12/23 08:19:46;;;;;;;1.90;1.80;;;9.20;99.90;;;;;;5060194;28;20171;-59
2022/12/23 08:22:12;;;;;;;2.07;1.90;;;9.20;99.90;;;;;;5039523;28;20446;-60
2022/12/23 08:24:38;;;;;;;2.60;1.60;;;9.20;99.90;;;;;;5060342;28;20580;-59
2022/12/23 08:27:04;;;;;;;5.73;1.90;;;9.20;99.90;;;;;;5039702;28;20180;-60
2022/12/23 08:29:30;;;;;;;3.23;2.20;;;9.20;99.90;;;;;;5035551;28;20205;-59
2022/12/23 08:31:55;;;;;;;2.73;2.23;;;9.20;99.90;;;;;;5047533;28;21097;-59
2022/12/23 08:34:21;;;;;;;1.77;1.67;;;9.20;99.90;;;;;;5045638;28;20179;-59
2022/12/23 08:36:47;;;;;;;4.43;1.90;;;9.20;99.90;;;;;;5040942;28;20179;-60
2022/12/23 08:39:13;;;;;;;2.20;2.00;;;9.20;99.90;;;;;;5037405;28;20179;-60
2022/12/23 08:41:44;;;;;;;2.53;2.20;;;9.20;99.90;;;;;;5037012;28;20308;-60
2022/12/23 08:44:10;;;;;;;3.53;2.60;;;9.30;99.90;;;;;;5049274;28;20409;-60
2022/12/23 08:46:36;;;;;;;3.90;2.70;;;9.30;99.90;;;;;;5046147;28;20426;-60
2022/12/23 08:49:03;;;;;;;3.37;3.07;;;9.30;99.90;;;;;;5033757;28;20204;-59
2022/12/23 08:51:29;;;;;;;4.77;3.63;;;9.30;99.90;;;;;;5036539;28;20507;-59
2022/12/23 08:53:57;;;;;;;4.00;3.17;;;9.30;99.90;;;;;;5034624;28;21163;-59
2022/12/23 08:56:25;;;;;;;4.17;3.43;;;9.40;99.90;;;;;;5039954;28;20248;-59
2022/12/23 08:58:52;;;;;;;13.43;3.57;;;9.40;99.90;;;;;;5043678;28;20426;-59
2022/12/23 09:01:21;;;;;;;4.47;2.90;;;9.40;99.90;;;;;;5039420;28;20456;-60
2022/12/23 09:03:46;;;;;;;5.50;2.50;;;9.40;99.90;;;;;;5038803;28;20483;-60
2022/12/23 09:06:15;;;;;;;4.90;2.90;;;9.50;99.90;;;;;;5041265;28;20433;-59
2022/12/23 09:08:42;;;;;;;4.50;2.53;;;9.50;99.90;;;;;;5044635;28;20188;-59
2022/12/23 09:11:09;;;;;;;3.67;3.00;;;9.50;99.90;;;;;;5034521;28;20452;-59
2022/12/23 09:13:35;;;;;;;3.80;2.50;;;9.60;99.90;;;;;;5039711;28;20503;-59
2022/12/23 09:16:01;;;;;;;3.27;2.33;;;9.60;99.90;;;;;;5045761;28;20493;-59
2022/12/23 09:18:27;;;;;;;2.90;2.10;;;9.60;99.90;;;;;;5037798;28;20179;-59
2022/12/23 09:21:19;;;;;;;7.03;2.47;;;9.60;99.90;;;;;;5027281;28;20199;-59
2022/12/23 09:23:46;;;;;;;4.17;2.60;;;9.70;99.90;;;;;;5045311;28;20191;-59
2022/12/23 09:26:19;;;;;;;5.53;3.50;;;9.70;99.90;;;;;;5050454;28;21106;-59
2022/12/23 09:28:44;;;;;;;3.93;3.20;;;9.70;99.90;;;;;;5050075;28;20464;-59
2022/12/23 09:31:11;;;;;;;5.00;2.83;;;9.70;99.90;;;;;;5051713;28;20453;-59
2022/12/23 09:33:37;;;;;;;3.63;2.50;;;9.80;99.90;;;;;;5049857;28;20182;-59
2022/12/23 09:36:04;;;;;;;2.50;2.23;;;9.80;99.90;;;;;;5049646;28;20469;-59
2022/12/23 09:38:30;;;;;;;4.33;2.00;;;9.80;99.90;;;;;;5050311;28;20508;-59
2022/12/23 09:41:31;;;;;;;2.50;2.30;;;9.90;99.90;;;;;;5042726;28;20472;-59
2022/12/23 09:44:16;;;;;;;4.83;2.80;;;9.90;99.90;;;;;;5018907;28;20449;-60
2022/12/23 09:46:55;;;;;;;7.63;4.27;;;9.90;99.90;;;;;;5049089;28;20423;-60
2022/12/23 09:49:22;;;;;;;5.57;3.10;;;9.90;99.90;;;;;;5055982;28;20464;-59
2022/12/23 09:51:51;;;;;;;3.70;3.13;;;9.90;99.90;;;;;;5042481;28;20520;-59
2022/12/23 09:54:28;;;;;;;6.60;4.10;;;9.90;99.90;;;;;;5050607;28;20433;-58
2022/12/23 09:57:26;;;;;;;3.50;2.70;;;10.00;99.90;;;;;;5046496;28;20433;-59
2022/12/23 10:00:14;;;;;;;2.70;2.50;;;10.00;99.90;;;;;;5048113;28;20524;-60
2022/12/23 10:03:07;;;;;;;2.97;2.10;;;10.00;99.90;;;;;;5047238;28;20437;-58
2022/12/23 10:05:44;;;;;;;4.80;2.60;;;10.00;99.90;;;;;;5041249;28;20847;-59
2022/12/23 10:08:29;;;;;;;3.10;2.43;;;10.10;99.90;;;;;;5049487;28;20878;-60
2022/12/23 10:11:06;;;;;;;3.50;3.20;;;10.10;99.90;;;;;;5044538;28;20453;-59
2022/12/23 10:13:39;;;;;;;6.03;3.00;;;10.10;99.90;;;;;;5045163;28;20518;-59
2022/12/23 10:16:31;;;;;;;4.87;2.80;;;10.10;99.90;;;;;;5040203;28;20516;-59
2022/12/23 10:19:14;;;;;;;8.80;2.83;;;10.10;99.90;;;;;;5035853;28;20428;-59
2022/12/23 10:21:45;;;;;;;3.93;3.10;;;10.20;99.90;;;;;;5043090;28;20453;-59
2022/12/23 10:24:39;;;;;;;9.60;3.57;;;10.20;99.90;;;;;;5046456;28;21041;-58
2022/12/23 10:27:14;;;;;;;7.83;3.13;;;10.20;99.90;;;;;;5043280;28;20443;-60
2022/12/23 10:29:41;;;;;;;3.73;2.57;;;10.20;99.90;;;;;;5045724;28;20492;-60
2022/12/23 10:32:41;;;;;;;4.70;2.83;;;10.20;99.90;;;;;;5040431;28;20457;-59
2022/12/23 10:35:23;;;;;;;4.20;2.20;;;10.30;99.90;;;;;;5043944;28;22023;-59
2022/12/23 10:38:01;;;;;;;2.10;1.90;;;10.30;99.90;;;;;;5043763;28;21005;-58
2022/12/23 10:40:57;;;;;;;2.37;2.17;;;10.40;99.90;;;;;;5040972;28;21092;-60
2022/12/23 10:43:42;;;;;;;2.67;2.10;;;10.40;99.90;;;;;;5043069;28;22180;-59
2022/12/23 10:46:29;;;;;;;4.90;2.17;;;10.30;99.90;;;;;;5052241;28;20856;-60
2022/12/23 10:49:00;;;;;;;2.63;2.00;;;10.40;99.90;;;;;;5041916;28;20491;-59
2022/12/23 10:51:29;;;;;;;1.97;1.57;;;10.40;99.90;;;;;;5043110;28;20445;-59
2022/12/23 10:54:24;;;;;;;1.43;1.33;;;10.40;99.90;;;;;;5046061;28;20429;-59
2022/12/23 10:56:50;;;;;;;1.80;1.67;;;10.40;99.90;;;;;;5036566;28;20457;-59
2022/12/23 10:59:24;;;;;;;2.23;2.00;;;10.40;99.90;;;;;;5030043;28;20473;-59
2022/12/23 11:02:08;;;;;;;3.13;2.30;;;10.40;99.90;;;;;;5039066;28;20213;-60
2022/12/23 11:04:37;;;;;;;3.17;2.00;;;10.50;99.90;;;;;;5040895;28;20433;-59
2022/12/23 11:07:03;;;;;;;2.00;1.80;;;10.50;99.90;;;;;;5039821;28;20455;-60
2022/12/23 11:09:44;;;;;;;2.93;2.20;;;10.50;99.90;;;;;;5042539;28;20454;-59
2022/12/23 11:12:11;;;;;;;3.60;1.80;;;10.50;99.90;;;;;;5044065;28;20210;-59
2022/12/23 11:14:55;;;;;;;2.60;1.83;;;10.50;99.90;;;;;;5043839;28;20456;-60
2022/12/23 11:17:26;;;;;;;2.07;1.90;;;10.50;99.90;;;;;;5037855;28;20425;-60
2022/12/23 11:20:13;;;;;;;2.33;2.13;;;10.60;99.90;;;;;;5041827;28;20841;-59
2022/12/23 11:23:00;;;;;;;2.03;1.93;;;10.60;99.90;;;;;;5040914;28;21308;-60
2022/12/23 11:25:37;;;;;;;5.60;3.57;;;10.60;99.90;;;;;;5036210;28;20437;-60
2022/12/23 11:28:09;;;;;;;5.60;3.70;;;10.60;99.90;;;;;;5037379;28;20538;-59
2022/12/23 11:30:54;;;;;;;4.93;3.73;;;10.60;99.90;;;;;;5042774;28;21115;-60
2022/12/23 11:33:38;;;;;;;3.53;2.73;;;10.60;99.90;;;;;;5036680;28;20497;-59
2022/12/23 11:36:16;;;;;;;2.00;1.90;;;10.60;99.90;;;;;;5038837;28;20438;-59
2022/12/23 11:39:02;;;;;;;1.63;1.40;;;10.60;99.90;;;;;;5044395;28;20429;-59
2022/12/23 11:41:43;;;;;;;3.93;1.50;;;10.60;99.90;;;;;;5035746;28;20472;-59
2022/12/23 11:44:35;;;;;;;1.40;1.20;;;10.50;99.90;;;;;;5038360;28;21065;-60
2022/12/23 11:47:21;;;;;;;3.13;1.50;;;10.50;99.90;;;;;;5038036;28;20610;-58
2022/12/23 11:49:55;;;;;;;2.60;1.63;;;10.50;99.90;;;;;;5038109;28;20469;-59
2022/12/23 11:52:27;;;;;;;2.47;2.27;;;10.50;99.90;;;;;;5038620;28;20453;-59
2022/12/23 11:54:59;;;;;;;1.57;1.40;;;10.50;99.90;;;;;;5037660;28;20426;-60
2022/12/23 11:57:38;;;;;;;2.80;2.07;;;10.50;99.90;;;;;;5038102;28;20419;-60
2022/12/23 12:00:07;;;;;;;2.17;1.50;;;10.50;99.90;;;;;;5041371;28;20532;-59
2022/12/23 12:02:43;;;;;;;1.60;1.50;;;10.50;99.90;;;;;;5040157;28;20429;-59
2022/12/23 12:05:21;;;;;;;3.00;2.50;;;10.50;99.90;;;;;;5040194;28;20440;-56
2022/12/23 12:07:48;;;;;;;3.10;2.63;;;10.50;99.90;;;;;;5039661;28;20488;-56
2022/12/23 12:10:26;;;;;;;2.70;2.07;;;10.50;99.90;;;;;;5035981;28;21016;-56
2022/12/23 12:12:58;;;;;;;2.60;2.30;;;10.50;99.90;;;;;;5034661;28;20421;-57
2022/12/23 12:15:43;;;;;;;7.00;2.20;;;10.50;99.90;;;;;;5029420;28;20402;-58
2022/12/23 12:18:14;;;;;;;1.60;1.50;;;10.50;99.90;;;;;;5037174;28;20433;-57
2022/12/23 12:21:04;;;;;;;2.30;2.10;;;10.50;99.90;;;;;;5034970;28;20465;-56
2022/12/23 12:24:05;;;;;;;1.73;1.63;;;10.50;99.90;;;;;;5039444;28;20525;-56
2022/12/23 12:26:36;;;;;;;2.23;1.93;;;10.50;99.90;;;;;;5033298;28;20460;-56
2022/12/23 12:29:15;;;;;;;3.00;2.07;;;10.50;99.90;;;;;;5041710;28;20960;-54
2022/12/23 12:31:53;;;;;;;1.90;1.70;;;10.50;99.90;;;;;;5043506;28;20506;-60
2022/12/23 12:34:38;;;;;;;1.87;1.70;;;10.50;99.90;;;;;;5036272;28;21021;-59
2022/12/23 12:37:17;;;;;;;4.53;1.23;;;10.60;99.90;;;;;;5037572;28;20438;-58
2022/12/23 12:39:50;;;;;;;1.60;1.50;;;10.60;99.90;;;;;;5034053;28;20449;-61
2022/12/23 12:42:19;;;;;;;2.90;2.40;;;10.50;99.90;;;;;;5037940;28;20814;-58
2022/12/23 12:45:03;;;;;;;1.20;1.20;;;10.50;99.90;;;;;;5037295;28;20429;-60
2022/12/23 12:47:37;;;;;;;1.40;1.30;;;10.60;99.90;;;;;;5034918;28;20498;-59
2022/12/23 12:50:14;;;;;;;1.37;1.27;;;10.50;99.90;;;;;;5035993;28;20460;-59
2022/12/23 12:52:41;;;;;;;2.20;1.30;;;10.50;99.90;;;;;;5035985;28;20429;-59
2022/12/23 12:55:35;;;;;;;3.60;2.83;;;10.50;99.90;;;;;;5038851;28;20528;-58
2022/12/23 12:58:03;;;;;;;5.80;1.30;;;10.50;99.90;;;;;;5032117;28;20464;-59
2022/12/23 13:00:42;;;;;;;1.63;1.53;;;10.60;99.90;;;;;;5038301;28;20998;-58
2022/12/23 13:03:28;;;;;;;2.27;1.77;;;10.60;99.90;;;;;;5033076;28;20965;-60
2022/12/23 13:06:02;;;;;;;1.83;1.40;;;10.60;99.90;;;;;;5039246;28;20515;-61
2022/12/23 13:08:41;;;;;;;1.13;1.00;;;10.60;99.90;;;;;;5035204;28;20464;-60
2022/12/23 13:11:42;;;;;;;1.53;1.00;;;10.60;99.90;;;;;;5042188;28;20489;-60
2022/12/23 13:14:26;;;;;;;1.00;1.00;;;10.60;99.90;;;;;;5033529;28;20937;-59
2022/12/23 13:17:01;;;;;;;1.10;1.10;;;10.60;99.90;;;;;;5034848;28;20422;-59
2022/12/23 13:19:37;;;;;;;1.27;0.87;;;10.60;99.90;;;;;;5039941;28;20543;-59
2022/12/23 13:22:05;;;;;;;2.80;1.23;;;10.60;99.90;;;;;;5042074;28;20969;-59
2022/12/23 13:24:35;;;;;;;1.27;1.17;;;10.60;99.90;;;;;;5039414;28;21049;-59
2022/12/23 13:27:11;;;;;;;2.50;1.10;;;10.60;99.90;;;;;;5044567;28;20979;-59
2022/12/23 13:30:00;;;;;;;2.80;1.10;;;10.60;99.90;;;;;;5027707;28;20535;-60
2022/12/23 13:32:44;;;;;;;2.20;1.30;;;10.60;99.90;;;;;;5040579;28;20448;-60
2022/12/23 13:35:16;;;;;;;2.07;1.87;;;10.60;99.90;;;;;;5035108;28;20490;-60
2022/12/23 13:37:51;;;;;;;2.30;2.03;;;10.60;99.90;;;;;;5038590;28;20937;-60
2022/12/23 13:40:34;;;;;;;2.07;1.47;;;10.60;99.90;;;;;;5031610;28;20448;-59
2022/12/23 13:43:10;;;;;;;2.00;1.80;;;10.60;99.90;;;;;;5034728;28;21032;-60
2022/12/23 13:45:38;;;;;;;2.53;1.60;;;10.60;99.90;;;;;;5037611;28;20816;-60